createdAt,value
2023-02-12T00:02:15.102Z,76.75
2023-02-12T00:04:48.119Z,75.99
2023-02-12T00:07:21.475Z,75.91
2023-02-12T00:10:06.337Z,76.11
2023-02-12T00:12:45.025Z,76.76
2023-02-12T00:15:23.651Z,77.33
2023-02-12T00:18:01.994Z,77.71
2023-02-12T00:20:45.334Z,76.95
2023-02-12T00:23:23.627Z,76.73
2023-02-12T00:25:58.832Z,77.56
2023-02-12T00:28:34.655Z,78.70
2023-02-12T00:31:23.550Z,79.59
2023-02-12T00:33:59.486Z,80.44
2023-02-12T00:45:56.171Z,83.47
2023-02-12T00:49:24.678Z,83.52
2023-02-12T00:52:01.277Z,82.14
2023-02-12T00:54:33.114Z,81.65
2023-02-12T00:57:10.596Z,82.36
2023-02-12T01:00:55.622Z,83.01
2023-02-12T01:09:05.835Z,82.06
2023-02-12T01:25:44.365Z,82.26
2023-02-12T01:28:54.072Z,81.76
2023-02-12T01:31:33.533Z,82.25
2023-02-12T01:34:10.924Z,82.83
2023-02-12T01:36:45.587Z,83.00
2023-02-12T01:39:46.941Z,83.29
2023-02-12T01:42:50.858Z,82.29
2023-02-12T01:45:59.740Z,81.59
2023-02-12T01:48:47.077Z,81.82
2023-02-12T01:51:44.360Z,82.67
2023-02-12T02:14:49.375Z,82.94
2023-02-12T02:18:03.812Z,82.70
2023-02-12T02:21:37.364Z,83.73
2023-02-12T02:25:02.256Z,84.56
2023-02-12T02:28:16.786Z,83.95
2023-02-12T02:31:10.616Z,83.03
2023-02-12T02:38:40.028Z,84.61
2023-02-12T02:42:23.440Z,84.94
2023-02-12T02:45:25.435Z,83.98
2023-02-12T02:49:11.616Z,83.50
2023-02-12T02:51:50.160Z,84.65
2023-02-12T02:55:31.530Z,85.03
2023-02-12T02:58:32.293Z,83.87
2023-02-12T03:01:30.746Z,83.37
2023-02-12T03:04:13.054Z,84.34
2023-02-12T03:08:09.612Z,85.23
2023-02-12T03:10:52.731Z,85.07
2023-02-12T03:13:40.976Z,84.80
2023-02-12T03:17:05.632Z,84.73
2023-02-12T03:20:35.555Z,84.54
2023-02-12T03:23:19.481Z,84.64
2023-02-12T03:27:10.126Z,84.80
2023-02-12T03:29:51.877Z,84.90
2023-02-12T03:33:13.534Z,84.98
2023-02-12T03:37:00.628Z,85.07
2023-02-12T03:53:53.582Z,85.45
2023-02-12T03:56:38.448Z,85.04
2023-02-12T03:59:18.390Z,84.81
2023-02-12T04:02:44.368Z,84.74
2023-02-12T04:05:31.517Z,83.72
2023-02-12T04:08:09.837Z,83.12
2023-02-12T04:10:49.488Z,81.77
2023-02-12T04:14:05.336Z,80.92
2023-02-12T04:17:09.695Z,80.44
2023-02-12T04:20:04.508Z,79.70
2023-02-12T04:23:00.011Z,78.09
2023-02-12T04:26:16.499Z,77.19
2023-02-12T04:29:21.395Z,76.98
2023-02-12T04:36:43.756Z,76.17
2023-02-12T04:40:03.580Z,75.67
2023-02-12T04:48:24.059Z,75.25
2023-02-12T04:55:08.590Z,75.39
2023-02-12T04:58:33.161Z,73.69
2023-02-12T05:29:51.996Z,65.30
2023-02-12T05:56:54.774Z,63.65
2023-02-12T06:04:19.131Z,62.37
2023-02-12T06:07:14.681Z,62.53
2023-02-12T06:10:21.653Z,62.64
2023-02-12T06:12:57.364Z,62.43
2023-02-12T06:15:36.646Z,61.87
2023-02-12T06:18:25.091Z,62.04
2023-02-12T06:21:00.187Z,62.62
2023-02-12T06:23:30.961Z,62.84
2023-02-12T06:26:04.499Z,61.81
2023-02-12T06:33:00.793Z,60.84
2023-02-12T06:35:32.304Z,61.25
2023-02-12T06:38:12.033Z,61.02
2023-02-12T06:40:46.676Z,59.71
2023-02-12T06:43:17.727Z,59.81
2023-02-12T06:45:47.956Z,59.41
2023-02-12T06:48:32.919Z,58.90
2023-02-12T06:51:24.884Z,59.06
2023-02-12T06:54:32.006Z,59.01
2023-02-12T06:57:04.034Z,57.96
2023-02-12T06:59:39.818Z,57.72
2023-02-12T07:02:19.063Z,57.96
2023-02-12T07:05:22.862Z,57.86
2023-02-12T07:08:22.005Z,58.46
2023-02-12T07:11:24.643Z,58.13
2023-02-12T07:14:05.571Z,57.99
2023-02-12T07:17:05.220Z,57.29
2023-02-12T07:19:35.304Z,56.86
2023-02-12T07:22:03.644Z,56.99
2023-02-12T07:24:41.201Z,57.14
2023-02-12T07:27:14.678Z,57.16
2023-02-12T07:29:52.291Z,57.58
2023-02-12T07:32:50.715Z,56.52
2023-02-12T07:36:08.489Z,55.87
2023-02-12T07:38:44.970Z,55.80
2023-02-12T07:41:20.544Z,56.11
2023-02-12T07:43:59.763Z,55.61
2023-02-12T07:46:37.505Z,56.23
2023-02-12T07:49:08.341Z,56.35
2023-02-12T07:51:38.062Z,55.53
2023-02-12T07:54:10.935Z,55.13
2023-02-12T07:56:46.473Z,53.47
2023-02-12T07:59:18.314Z,52.19
2023-02-12T08:01:51.051Z,52.08
2023-02-12T08:04:37.016Z,52.75
2023-02-12T08:07:45.571Z,53.58
2023-02-12T08:10:46.263Z,52.55
2023-02-12T08:13:16.156Z,52.31
2023-02-12T08:16:02.985Z,52.62
2023-02-12T08:18:36.509Z,52.82
2023-02-12T08:21:34.683Z,53.76
2023-02-12T08:24:09.383Z,53.17
2023-02-12T08:26:39.533Z,52.46
2023-02-12T08:29:18.128Z,52.25
2023-02-12T08:31:57.709Z,53.23
2023-02-12T08:34:36.965Z,53.50
2023-02-12T08:37:13.076Z,52.93
2023-02-12T08:39:47.156Z,53.27
2023-02-12T08:42:25.237Z,53.58
2023-02-12T08:44:59.965Z,53.47
2023-02-12T08:48:00.867Z,53.50
2023-02-12T08:50:52.702Z,54.23
2023-02-12T08:53:26.768Z,54.79
2023-02-12T08:55:59.033Z,54.65
2023-02-12T08:58:33.071Z,54.62
2023-02-12T09:01:04.111Z,54.52
2023-02-12T09:03:45.109Z,54.02
2023-02-12T09:06:18.017Z,53.55
2023-02-12T09:08:58.090Z,53.82
2023-02-12T09:11:55.385Z,54.68
2023-02-12T09:14:35.313Z,55.00
2023-02-12T09:17:37.356Z,53.49
2023-02-12T09:20:11.431Z,52.23
2023-02-12T09:23:04.188Z,52.69
2023-02-12T09:25:35.876Z,53.16
2023-02-12T09:28:03.355Z,52.70
2023-02-12T09:30:46.109Z,51.85
2023-02-12T09:33:16.628Z,52.35
2023-02-12T09:35:46.842Z,52.41
2023-02-12T09:38:15.249Z,52.32
2023-02-12T09:41:14.976Z,52.40
2023-02-12T09:44:01.116Z,51.92
2023-02-12T09:47:22.264Z,51.90
2023-02-12T09:50:28.593Z,52.35
2023-02-12T09:53:12.218Z,52.82
2023-02-12T09:55:49.750Z,52.43
2023-02-12T09:58:50.020Z,52.24
2023-02-12T10:01:21.676Z,51.91
2023-02-12T10:03:54.785Z,52.11
2023-02-12T10:06:51.500Z,52.93
2023-02-12T10:10:08.200Z,52.27
2023-02-12T10:12:47.254Z,51.44
2023-02-12T10:15:30.010Z,51.76
2023-02-12T10:18:26.512Z,51.76
2023-02-12T10:21:17.522Z,52.00
2023-02-12T10:24:57.457Z,52.77
2023-02-12T10:27:48.788Z,53.24
2023-02-12T10:30:42.731Z,51.58
2023-02-12T10:33:21.297Z,51.44
2023-02-12T10:35:58.788Z,51.86
2023-02-12T10:38:59.351Z,51.98
2023-02-12T10:41:38.464Z,51.79
2023-02-12T10:44:13.575Z,51.84
2023-02-12T10:47:14.318Z,52.25
2023-02-12T10:49:55.417Z,52.44
2023-02-12T10:53:18.388Z,52.33
2023-02-12T10:56:22.813Z,51.42
2023-02-12T10:59:01.954Z,52.18
2023-02-12T11:02:00.611Z,52.18
2023-02-12T11:04:39.879Z,51.82
2023-02-12T11:07:14.419Z,51.53
2023-02-12T11:09:51.683Z,51.82
2023-02-12T11:12:47.631Z,51.64
2023-02-12T11:15:28.524Z,51.65
2023-02-12T11:18:07.913Z,50.78
2023-02-12T11:21:08.883Z,50.52
2023-02-12T11:23:44.640Z,51.23
2023-02-12T11:26:24.501Z,51.03
2023-02-12T11:29:16.954Z,50.23
2023-02-12T11:32:00.405Z,49.73
2023-02-12T11:34:30.782Z,49.60
2023-02-12T11:37:14.856Z,49.63
2023-02-12T11:39:50.612Z,50.32
2023-02-12T11:42:22.685Z,50.62
2023-02-12T11:45:02.448Z,50.46
2023-02-12T11:47:33.506Z,50.67
2023-02-12T11:50:32.086Z,50.98
2023-02-12T11:53:08.716Z,50.74
2023-02-12T11:55:39.133Z,50.20
2023-02-12T11:58:16.892Z,50.50
2023-02-12T12:00:56.918Z,50.87
2023-02-12T12:03:57.726Z,51.02
2023-02-12T12:06:32.267Z,51.43
2023-02-12T12:09:09.852Z,51.78
2023-02-12T12:19:36.597Z,50.35
2023-02-12T12:25:56.966Z,50.67
2023-02-12T12:29:25.792Z,50.07
2023-02-12T12:32:02.137Z,49.58
2023-02-12T12:34:36.763Z,50.25
2023-02-12T12:37:19.079Z,50.66
2023-02-12T12:40:54.132Z,50.53
2023-02-12T12:43:42.371Z,48.41
2023-02-12T12:46:48.189Z,48.22
2023-02-12T12:49:56.199Z,47.73
2023-02-12T12:52:47.356Z,47.68
2023-02-12T12:56:04.996Z,47.79
2023-02-12T12:59:21.275Z,47.99
2023-02-12T13:02:17.420Z,47.64
2023-02-12T13:05:24.436Z,48.00
2023-02-12T13:08:05.071Z,48.76
2023-02-12T13:10:49.081Z,49.42
2023-02-12T13:13:41.886Z,49.49
2023-02-12T13:16:42.168Z,48.00
2023-02-12T13:19:20.717Z,47.23
2023-02-12T13:21:59.282Z,46.61
2023-02-12T13:25:02.556Z,46.37
2023-02-12T13:27:37.110Z,46.78
2023-02-12T13:30:19.275Z,47.63
2023-02-12T13:32:59.710Z,48.45
2023-02-12T13:35:32.219Z,48.88
2023-02-12T13:38:06.338Z,48.41
2023-02-12T13:40:37.593Z,48.27
2023-02-12T13:43:30.114Z,48.26
2023-02-12T13:46:47.151Z,48.13
2023-02-12T13:49:35.324Z,48.72
2023-02-12T13:52:15.099Z,48.64
2023-02-12T13:54:47.564Z,48.16
2023-02-12T13:57:43.779Z,48.35
2023-02-12T14:00:58.656Z,48.07
2023-02-12T14:03:29.789Z,48.11
2023-02-12T14:06:21.246Z,48.39
2023-02-12T14:09:13.718Z,48.14
2023-02-12T14:11:51.738Z,48.00
2023-02-12T14:14:49.487Z,48.43
2023-02-12T14:17:37.725Z,48.16
2023-02-12T14:20:22.667Z,48.03
2023-02-12T14:22:58.934Z,47.99
2023-02-12T14:25:33.284Z,47.66
2023-02-12T14:28:42.537Z,47.97
2023-02-12T14:31:32.019Z,47.65
2023-02-12T14:34:16.942Z,47.76
2023-02-12T14:36:50.638Z,47.75
2023-02-12T14:39:27.123Z,47.75
2023-02-12T14:42:19.545Z,47.54
2023-02-12T14:44:59.771Z,47.61
2023-02-12T14:47:50.737Z,47.70
2023-02-12T14:50:50.720Z,47.98
2023-02-12T14:53:33.574Z,47.65
2023-02-12T14:56:09.538Z,47.92
2023-02-12T14:58:41.030Z,47.83
2023-02-12T15:01:15.293Z,48.08
2023-02-12T15:03:53.259Z,48.07
2023-02-12T15:06:27.934Z,48.16
2023-02-12T15:09:13.622Z,48.32
2023-02-12T15:12:36.518Z,48.08
2023-02-12T15:15:40.092Z,47.86
2023-02-12T15:18:46.155Z,47.80
2023-02-12T15:21:30.131Z,47.97
2023-02-12T15:24:14.558Z,47.77
2023-02-12T15:26:52.068Z,47.51
2023-02-12T15:29:29.719Z,47.42
2023-02-12T15:32:05.084Z,47.43
2023-02-12T15:34:43.239Z,47.33
2023-02-12T15:37:23.959Z,47.51
2023-02-12T15:40:27.256Z,47.46
2023-02-12T15:43:22.588Z,47.51
2023-02-12T15:45:56.631Z,47.71
2023-02-12T15:48:35.399Z,47.76
2023-02-12T15:51:41.753Z,47.81
2023-02-12T15:54:13.635Z,47.80
2023-02-12T15:56:50.320Z,47.76
2023-02-12T15:59:29.087Z,47.80
2023-02-12T16:02:02.667Z,47.81
2023-02-12T16:04:38.139Z,48.06
2023-02-12T16:07:10.109Z,48.17
2023-02-12T16:09:47.593Z,48.28
2023-02-12T16:12:22.652Z,48.52
2023-02-12T16:15:06.277Z,48.63
2023-02-12T16:17:40.419Z,48.96
2023-02-12T16:20:25.723Z,49.01
2023-02-12T16:22:57.053Z,49.28
2023-02-12T16:25:33.221Z,49.49
2023-02-12T16:28:33.813Z,49.62
2023-02-12T16:31:31.251Z,49.82
2023-02-12T16:34:36.861Z,50.01
2023-02-12T16:37:43.792Z,50.31
2023-02-12T16:40:27.031Z,50.51
2023-02-12T16:43:04.305Z,50.26
2023-02-12T16:45:36.665Z,49.68
2023-02-12T16:48:10.466Z,49.70
2023-02-12T16:51:09.816Z,49.75
2023-02-12T16:53:49.476Z,49.89
2023-02-12T16:56:22.372Z,50.17
2023-02-12T16:58:56.503Z,50.45
2023-02-12T17:01:30.426Z,50.71
2023-02-12T17:04:02.591Z,51.25
2023-02-12T17:06:35.863Z,51.51
2023-02-12T17:09:11.000Z,51.79
2023-02-12T17:11:46.480Z,52.04
2023-02-12T17:14:20.378Z,52.04
2023-02-12T17:16:54.905Z,52.23
2023-02-12T17:19:24.313Z,52.35
2023-02-12T17:21:59.047Z,52.19
2023-02-12T17:24:31.222Z,51.31
2023-02-12T17:27:02.809Z,50.90
2023-02-12T17:29:39.035Z,51.02
2023-02-12T17:32:10.457Z,51.43
2023-02-12T17:34:48.483Z,51.85
2023-02-12T17:37:53.206Z,52.16
2023-02-12T17:40:34.439Z,52.41
2023-02-12T17:43:27.424Z,52.64
2023-02-12T17:46:01.492Z,52.93
2023-02-12T17:48:31.415Z,53.15
2023-02-12T17:51:04.889Z,53.26
2023-02-12T17:53:39.897Z,53.34
2023-02-12T17:56:16.860Z,53.11
2023-02-12T17:58:57.326Z,52.27
2023-02-12T18:01:29.524Z,51.74
2023-02-12T18:04:11.160Z,51.91
2023-02-12T18:06:50.837Z,52.01
2023-02-12T18:09:21.401Z,52.11
2023-02-12T18:13:20.307Z,52.14
2023-02-12T18:16:19.007Z,52.10
2023-02-12T18:18:55.577Z,52.21
2023-02-12T18:21:48.508Z,52.27
2023-02-12T18:24:33.566Z,52.46
2023-02-12T18:28:02.384Z,52.60
2023-02-12T18:30:56.376Z,52.73
2023-02-12T18:33:50.223Z,52.90
2023-02-12T18:36:23.382Z,52.63
2023-02-12T18:39:01.516Z,51.88
2023-02-12T18:42:00.912Z,51.97
2023-02-12T18:45:00.608Z,52.24
2023-02-12T18:48:44.386Z,52.51
2023-02-12T18:51:22.961Z,52.83
2023-02-12T18:54:23.993Z,53.00
2023-02-12T18:57:25.854Z,53.16
2023-02-12T18:59:58.890Z,53.17
2023-02-12T19:02:39.644Z,53.27
2023-02-12T19:05:37.381Z,53.03
2023-02-12T19:08:14.059Z,53.23
2023-02-12T19:11:18.274Z,53.14
2023-02-12T19:13:56.564Z,53.24
2023-02-12T19:16:33.679Z,53.38
2023-02-12T19:19:25.677Z,53.47
2023-02-12T19:22:02.700Z,53.33
2023-02-12T19:24:46.972Z,53.23
2023-02-12T19:27:30.802Z,53.34
2023-02-12T19:30:03.973Z,53.54
2023-02-12T19:33:01.020Z,53.52
2023-02-12T19:35:36.692Z,53.78
2023-02-12T19:38:19.461Z,53.84
2023-02-12T19:40:53.542Z,53.39
2023-02-12T19:43:29.756Z,52.87
2023-02-12T19:46:19.074Z,53.03
2023-02-12T19:48:58.687Z,53.17
2023-02-12T19:51:51.535Z,53.05
2023-02-12T19:54:26.377Z,53.32
2023-02-12T19:57:08.730Z,53.35
2023-02-12T19:59:46.796Z,53.27
2023-02-12T20:02:17.846Z,53.45
2023-02-12T20:05:00.280Z,53.46
2023-02-12T20:07:39.766Z,53.65
2023-02-12T20:10:14.828Z,53.69
2023-02-12T20:12:52.453Z,53.81
2023-02-12T20:15:26.967Z,53.77
2023-02-12T20:17:59.611Z,53.86
2023-02-12T20:21:02.077Z,54.01
2023-02-12T20:23:40.123Z,53.79
2023-02-12T20:26:22.830Z,53.19
2023-02-12T20:29:06.896Z,52.76
2023-02-12T20:31:46.033Z,53.16
2023-02-12T20:34:20.552Z,53.42
2023-02-12T20:37:12.111Z,53.40
2023-02-12T20:40:28.502Z,53.57
2023-02-12T20:43:00.123Z,53.79
2023-02-12T20:45:37.203Z,54.03
2023-02-12T20:48:09.047Z,54.22
2023-02-12T20:50:42.379Z,54.36
2023-02-12T20:53:30.078Z,54.56
2023-02-12T20:56:09.879Z,54.83
2023-02-12T20:59:01.976Z,55.01
2023-02-12T21:02:11.849Z,54.28
2023-02-12T21:05:41.504Z,54.21
2023-02-12T21:08:24.038Z,54.49
2023-02-12T21:11:02.963Z,54.93
2023-02-12T21:14:12.461Z,55.00
2023-02-12T21:16:56.038Z,55.23
2023-02-12T21:19:35.289Z,55.42
2023-02-12T21:22:07.872Z,55.78
2023-02-12T21:24:41.247Z,56.02
2023-02-12T21:27:40.838Z,56.03
2023-02-12T21:30:19.931Z,56.19
2023-02-12T21:32:55.860Z,56.12
2023-02-12T21:35:35.517Z,55.32
2023-02-12T21:38:07.127Z,55.20
2023-02-12T21:40:38.813Z,55.56
2023-02-12T21:43:17.054Z,55.92
2023-02-12T21:45:59.963Z,56.13
2023-02-12T21:49:27.843Z,56.32
2023-02-12T21:52:28.392Z,56.38
2023-02-12T21:55:09.590Z,56.50
2023-02-12T21:58:08.886Z,56.71
2023-02-12T22:00:46.006Z,56.75
2023-02-12T22:03:22.419Z,56.50
2023-02-12T22:05:53.621Z,55.98
2023-02-12T22:08:52.498Z,55.50
2023-02-12T22:11:24.817Z,55.94
2023-02-12T22:14:00.361Z,55.98
2023-02-12T22:17:04.797Z,55.82
2023-02-12T22:19:51.982Z,55.70
2023-02-12T22:23:42.068Z,55.54
2023-02-12T22:26:37.707Z,55.85
2023-02-12T22:29:17.508Z,55.88
2023-02-12T22:31:52.667Z,56.20
2023-02-12T22:34:58.621Z,56.13
2023-02-12T22:37:39.982Z,55.51
2023-02-12T22:40:18.383Z,55.67
2023-02-12T22:43:22.954Z,55.95
2023-02-12T22:46:09.212Z,56.45
2023-02-12T22:48:57.481Z,56.55
2023-02-12T22:51:31.213Z,56.70
2023-02-12T22:54:14.940Z,56.83
2023-02-12T22:57:34.410Z,57.11
2023-02-12T23:00:33.602Z,57.38
2023-02-12T23:03:16.003Z,56.72
2023-02-12T23:05:46.800Z,56.34
2023-02-12T23:08:21.062Z,56.47
2023-02-12T23:10:58.131Z,56.89
2023-02-12T23:13:35.587Z,56.99
2023-02-12T23:16:11.895Z,57.14
2023-02-12T23:18:43.102Z,57.38
2023-02-12T23:21:39.653Z,57.66
2023-02-12T23:24:14.060Z,57.78
2023-02-12T23:27:09.812Z,57.80
2023-02-12T23:29:45.658Z,57.63
2023-02-12T23:32:42.427Z,57.21
2023-02-12T23:35:15.461Z,56.73
2023-02-12T23:38:00.337Z,57.07
2023-02-12T23:40:33.247Z,57.26
2023-02-12T23:43:11.146Z,57.37
2023-02-12T23:45:48.304Z,57.32
2023-02-12T23:48:28.292Z,57.38
2023-02-12T23:51:17.124Z,57.53
2023-02-12T23:54:50.634Z,57.49
2023-02-12T23:57:21.831Z,57.43
